Time;durP1;ratioP1;P1;durP2;ratioP2;P2;SDS_P1;SDS_P2;PMS_P1;PMS_P2;Temp;Humidity;BMP_temperature;BMP_pressure;BME280_temperature;BME280_humidity;BME280_pressure;Samples;Min_cycle;Max_cycle;Signal;HPM_P1;HPM_P2
2021/12/09 00:01:55;;;;;;;15.27;10.60;;;22.20;37.40;;;;;;6156744;28;83076;-70
2021/12/09 00:04:57;;;;;;;16.48;10.52;;;22.30;37.00;;;;;;6155643;28;82955;-69
2021/12/09 00:07:57;;;;;;;18.23;11.98;;;22.30;37.00;;;;;;6152411;28;84344;-69
2021/12/09 00:10:58;;;;;;;15.88;11.00;;;22.30;37.00;;;;;;6154465;28;84402;-71
2021/12/09 00:13:58;;;;;;;16.10;10.75;;;22.30;37.40;;;;;;6149156;28;84669;-69
2021/12/09 00:16:59;;;;;;;17.33;10.95;;;22.20;37.10;;;;;;6145542;28;83659;-70
2021/12/09 00:19:59;;;;;;;16.50;10.85;;;22.20;37.30;;;;;;6153735;28;83884;-69
2021/12/09 00:23:00;;;;;;;17.55;11.15;;;22.30;37.90;;;;;;6156708;28;83134;-70
2021/12/09 00:26:00;;;;;;;16.02;10.95;;;22.20;37.20;;;;;;6157336;28;83551;-69
2021/12/09 00:29:01;;;;;;;18.25;11.63;;;22.20;37.20;;;;;;6154868;28;82879;-68
2021/12/09 00:32:01;;;;;;;14.63;10.38;;;22.20;37.20;;;;;;6154176;28;82954;-67
2021/12/09 00:35:03;;;;;;;15.10;10.25;;;22.20;37.30;;;;;;6154167;28;83091;-68
2021/12/09 00:38:07;;;;;;;15.35;11.23;;;22.20;37.30;;;;;;6154978;28;83373;-67
2021/12/09 00:41:08;;;;;;;16.33;10.43;;;22.20;37.20;;;;;;6153300;28;84120;-67
2021/12/09 00:44:09;;;;;;;15.98;11.00;;;22.20;37.20;;;;;;6153511;28;83359;-68
2021/12/09 00:47:09;;;;;;;17.05;10.52;;;22.20;37.40;;;;;;6151345;28;83975;-67
2021/12/09 00:50:10;;;;;;;17.05;10.80;;;22.20;37.20;;;;;;6154164;28;85361;-68
2021/12/09 00:53:10;;;;;;;15.68;10.50;;;22.20;37.20;;;;;;6148928;28;83206;-70
2021/12/09 00:56:11;;;;;;;16.85;10.52;;;22.20;37.30;;;;;;6153097;28;84772;-69
2021/12/09 00:59:11;;;;;;;17.08;10.80;;;22.10;37.10;;;;;;6152708;28;84751;-70
2021/12/09 01:02:12;;;;;;;15.85;11.35;;;22.10;37.10;;;;;;6154498;28;83468;-70
2021/12/09 01:05:13;;;;;;;15.50;11.35;;;22.10;37.20;;;;;;6154445;28;85246;-70
2021/12/09 01:08:13;;;;;;;15.77;11.07;;;22.10;37.10;;;;;;6154770;28;83217;-69
2021/12/09 01:11:14;;;;;;;13.43;9.85;;;22.10;37.10;;;;;;6149850;28;83021;-71
2021/12/09 01:14:14;;;;;;;15.82;10.27;;;22.10;37.00;;;;;;6159636;28;82886;-70
2021/12/09 01:17:15;;;;;;;15.75;11.32;;;22.10;37.00;;;;;;6156009;28;83313;-71
2021/12/09 01:20:15;;;;;;;16.60;10.88;;;22.10;36.90;;;;;;6154111;28;83070;-68
2021/12/09 01:23:16;;;;;;;17.15;11.40;;;22.10;37.00;;;;;;6151930;28;84260;-69
2021/12/09 01:26:17;;;;;;;16.65;10.90;;;22.10;37.00;;;;;;6155389;28;84202;-69
2021/12/09 01:29:21;;;;;;;17.58;10.95;;;22.10;36.70;;;;;;6152008;28;88364;-70
2021/12/09 01:32:27;;;;;;;16.00;10.77;;;22.10;36.80;;;;;;6155816;28;82954;-70
2021/12/09 01:35:28;;;;;;;18.65;10.82;;;22.10;36.80;;;;;;6155094;28;82832;-71
2021/12/09 01:38:31;;;;;;;17.75;11.50;;;22.10;36.60;;;;;;6154230;28;83867;-71
2021/12/09 01:41:32;;;;;;;15.70;10.93;;;22.10;36.60;;;;;;6155119;28;83014;-69
2021/12/09 01:44:32;;;;;;;16.88;11.18;;;22.10;36.50;;;;;;6155992;28;83004;-70
2021/12/09 01:47:33;;;;;;;16.17;10.95;;;22.10;36.20;;;;;;6155031;28;82896;-68
2021/12/09 01:50:34;;;;;;;17.38;11.57;;;22.10;36.30;;;;;;6153302;28;83048;-68
2021/12/09 01:53:35;;;;;;;17.85;12.32;;;22.10;36.20;;;;;;6154494;28;83194;-67
2021/12/09 01:56:35;;;;;;;17.63;12.15;;;22.10;36.00;;;;;;6153006;28;83311;-69
2021/12/09 01:59:36;;;;;;;15.63;10.85;;;22.10;36.00;;;;;;6152210;28;82995;-69
2021/12/09 02:02:36;;;;;;;17.02;11.60;;;22.10;35.80;;;;;;6137922;28;83027;-70
2021/12/09 02:05:40;;;;;;;16.40;10.98;;;22.10;35.70;;;;;;6151752;28;85267;-69
2021/12/09 02:08:42;;;;;;;16.38;11.35;;;22.10;35.70;;;;;;6153714;28;87733;-70
2021/12/09 02:11:43;;;;;;;15.65;10.13;;;22.10;35.70;;;;;;6138488;28;83165;-71
2021/12/09 02:14:44;;;;;;;16.90;11.88;;;22.10;35.70;;;;;;6152591;28;83052;-68
2021/12/09 02:17:44;;;;;;;16.88;11.43;;;22.10;35.80;;;;;;6151559;28;83263;-69
2021/12/09 02:20:45;;;;;;;16.15;11.07;;;22.10;35.70;;;;;;6152391;28;84046;-71
2021/12/09 02:23:45;;;;;;;16.85;11.00;;;22.10;35.80;;;;;;6154660;28;83283;-71
2021/12/09 02:26:46;;;;;;;15.45;10.80;;;22.00;35.60;;;;;;6146644;28;83015;-70
2021/12/09 02:29:47;;;;;;;16.17;10.80;;;22.00;35.60;;;;;;6154253;28;83070;-70
2021/12/09 02:32:47;;;;;;;16.63;11.02;;;22.00;35.60;;;;;;6152034;28;84383;-68
2021/12/09 02:35:48;;;;;;;16.65;10.98;;;22.00;35.60;;;;;;6153139;28;83484;-68
2021/12/09 02:38:49;;;;;;;17.70;11.30;;;22.00;35.80;;;;;;6152011;28;82875;-68
2021/12/09 02:41:50;;;;;;;14.93;10.93;;;22.00;35.80;;;;;;6154976;28;83018;-68
2021/12/09 02:44:51;;;;;;;15.85;10.27;;;22.00;35.90;;;;;;6152886;28;82969;-68
2021/12/09 02:47:51;;;;;;;17.17;11.20;;;22.00;35.90;;;;;;6151000;28;83036;-68
2021/12/09 02:50:52;;;;;;;16.20;11.00;;;22.00;35.90;;;;;;6153007;28;83148;-68
2021/12/09 02:53:53;;;;;;;17.58;10.63;;;22.00;35.80;;;;;;6153244;28;82871;-68
2021/12/09 02:56:53;;;;;;;17.10;11.43;;;22.00;36.00;;;;;;6152930;28;83188;-68
2021/12/09 02:59:54;;;;;;;17.65;11.45;;;22.00;35.90;;;;;;6152162;28;84219;-68
2021/12/09 03:02:56;;;;;;;15.55;10.65;;;22.00;35.70;;;;;;6153429;28;83459;-68
2021/12/09 03:05:57;;;;;;;15.40;10.70;;;22.00;35.90;;;;;;6152124;28;82828;-69
2021/12/09 03:08:58;;;;;;;17.48;11.80;;;22.00;36.40;;;;;;6150294;28;82893;-69
2021/12/09 03:12:04;;;;;;;17.25;10.77;;;22.00;36.30;;;;;;6152152;28;84283;-69
2021/12/09 03:15:04;;;;;;;16.20;11.18;;;22.00;36.90;;;;;;6152162;28;83136;-68
2021/12/09 03:18:05;;;;;;;16.50;10.73;;;22.10;35.70;;;;;;6152873;28;84032;-68
2021/12/09 03:21:05;;;;;;;17.27;11.00;;;22.10;35.50;;;;;;6151858;28;82879;-68
2021/12/09 03:24:06;;;;;;;15.63;10.68;;;22.30;35.20;;;;;;6153525;28;83215;-69
2021/12/09 03:27:06;;;;;;;16.08;11.52;;;22.30;34.80;;;;;;6154574;28;83006;-69
2021/12/09 03:30:07;;;;;;;16.17;11.00;;;22.40;34.60;;;;;;6157986;28;83454;-69
2021/12/09 03:33:07;;;;;;;16.65;10.90;;;22.50;34.40;;;;;;6147155;28;83219;-69
2021/12/09 03:36:08;;;;;;;15.35;10.55;;;22.50;34.20;;;;;;6156847;28;83932;-70
2021/12/09 03:39:09;;;;;;;15.07;10.38;;;22.60;34.20;;;;;;6154743;28;85795;-69
2021/12/09 03:42:09;;;;;;;15.00;10.35;;;22.60;33.90;;;;;;6157253;28;84300;-70
2021/12/09 03:45:10;;;;;;;16.98;10.90;;;22.70;33.90;;;;;;6155532;28;84126;-70
2021/12/09 03:48:10;;;;;;;18.05;10.88;;;22.70;33.60;;;;;;6158232;28;83087;-69
2021/12/09 03:51:11;;;;;;;15.70;10.40;;;22.80;33.80;;;;;;6149358;28;85714;-70
2021/12/09 03:54:11;;;;;;;15.80;10.80;;;22.80;33.70;;;;;;6157156;28;83978;-69
2021/12/09 03:57:12;;;;;;;14.90;10.75;;;22.80;33.60;;;;;;6155451;28;83107;-70
2021/12/09 04:00:12;;;;;;;15.02;10.85;;;22.90;33.70;;;;;;6155653;28;82906;-70
2021/12/09 04:03:13;;;;;;;13.02;10.02;;;22.90;33.60;;;;;;6155137;28;83029;-71
2021/12/09 04:06:14;;;;;;;17.23;11.13;;;22.90;33.70;;;;;;6154363;28;83597;-71
2021/12/09 04:09:14;;;;;;;15.20;10.77;;;22.90;33.80;;;;;;6155211;28;82825;-71
2021/12/09 04:12:15;;;;;;;14.95;10.75;;;22.90;33.70;;;;;;6156267;28;83895;-70
2021/12/09 04:15:15;;;;;;;14.82;10.40;;;23.00;33.80;;;;;;6154837;28;83127;-71
2021/12/09 04:18:16;;;;;;;14.13;10.70;;;23.00;33.90;;;;;;6155816;28;83229;-69
2021/12/09 04:21:16;;;;;;;15.10;10.50;;;22.90;33.90;;;;;;6157285;28;82997;-70
2021/12/09 04:24:17;;;;;;;15.27;10.15;;;23.00;34.00;;;;;;6156102;28;82994;-71
2021/12/09 04:27:17;;;;;;;16.23;10.48;;;23.00;34.00;;;;;;6156472;28;83593;-72
2021/12/09 04:30:19;;;;;;;14.55;10.68;;;23.00;33.90;;;;;;6156360;28;83990;-71
2021/12/09 04:33:19;;;;;;;17.65;11.50;;;23.00;33.80;;;;;;6155941;28;83310;-71
2021/12/09 04:36:21;;;;;;;16.40;10.73;;;23.00;34.00;;;;;;6155596;28;85809;-72
2021/12/09 04:39:21;;;;;;;16.83;10.85;;;23.00;33.80;;;;;;6157865;28;83188;-71
2021/12/09 04:42:22;;;;;;;19.27;11.35;;;23.00;33.90;;;;;;6142129;28;83065;-71
2021/12/09 04:45:22;;;;;;;15.90;10.77;;;23.00;33.80;;;;;;6150727;28;82937;-71
2021/12/09 04:48:23;;;;;;;17.33;11.00;;;23.10;34.00;;;;;;6156985;28;83228;-70
2021/12/09 04:51:23;;;;;;;16.55;11.50;;;23.10;34.00;;;;;;6153805;28;82834;-71
2021/12/09 04:54:24;;;;;;;16.92;11.60;;;23.10;34.10;;;;;;6155595;28;84082;-72
2021/12/09 04:57:24;;;;;;;18.73;12.07;;;23.10;34.10;;;;;;6155302;28;83776;-71
2021/12/09 05:00:25;;;;;;;16.95;11.50;;;23.10;34.20;;;;;;6154950;28;83345;-72
2021/12/09 05:03:25;;;;;;;14.45;11.32;;;23.10;35.00;;;;;;6141152;28;83073;-71
2021/12/09 05:06:26;;;;;;;15.43;11.48;;;23.10;34.50;;;;;;6151097;28;82933;-72
2021/12/09 05:09:29;;;;;;;18.17;11.52;;;23.10;34.80;;;;;;6156156;28;83643;-71
2021/12/09 05:12:29;;;;;;;16.88;11.70;;;23.10;35.60;;;;;;6155629;28;83160;-72
2021/12/09 05:15:30;;;;;;;19.27;11.88;;;23.10;35.20;;;;;;6154209;28;83460;-71
2021/12/09 05:18:31;;;;;;;20.20;12.75;;;23.10;35.20;;;;;;6157264;28;82978;-71
2021/12/09 05:21:37;;;;;;;21.58;12.45;;;23.10;35.30;;;;;;6156259;28;83961;-71
2021/12/09 05:24:37;;;;;;;18.15;12.52;;;23.10;35.50;;;;;;6155276;28;82939;-72
2021/12/09 05:27:38;;;;;;;21.08;13.27;;;23.10;35.70;;;;;;6143700;28;82839;-71
2021/12/09 05:33:59;;;;;;;23.52;13.80;;;23.10;35.80;;;;;;6175388;28;82981;-72
2021/12/09 05:36:59;;;;;;;21.70;13.32;;;23.20;35.80;;;;;;6155502;28;83189;-71
2021/12/09 05:40:00;;;;;;;21.60;14.27;;;23.20;35.90;;;;;;6154247;28;83699;-71
2021/12/09 05:43:00;;;;;;;24.20;14.20;;;23.20;35.90;;;;;;6152232;28;83413;-71
2021/12/09 05:46:01;;;;;;;20.98;13.15;;;23.20;35.90;;;;;;6154624;28;82989;-72
2021/12/09 05:49:01;;;;;;;23.90;13.85;;;23.20;36.10;;;;;;6150984;28;83051;-72
2021/12/09 05:52:02;;;;;;;23.20;12.98;;;23.20;35.70;;;;;;6152583;28;84516;-72
2021/12/09 05:55:02;;;;;;;24.75;14.13;;;23.10;35.50;;;;;;6150874;28;83509;-72
2021/12/09 05:58:03;;;;;;;18.73;12.70;;;23.10;35.30;;;;;;6151585;28;84293;-72
2021/12/09 06:01:03;;;;;;;21.00;13.10;;;23.00;35.20;;;;;;6167646;28;83107;-68
2021/12/09 06:04:04;;;;;;;20.77;13.13;;;23.00;35.20;;;;;;6145860;28;82824;-67
2021/12/09 06:07:05;;;;;;;23.48;14.07;;;23.00;34.70;;;;;;6165768;28;83327;-67
2021/12/09 06:10:05;;;;;;;21.60;13.18;;;23.00;35.00;;;;;;6151698;28;83405;-67
2021/12/09 06:13:06;;;;;;;20.80;12.00;;;23.00;35.30;;;;;;6153633;28;83309;-67
2021/12/09 06:16:06;;;;;;;13.98;9.20;;;22.90;37.30;;;;;;6153169;28;83019;-67
2021/12/09 06:19:07;;;;;;;12.23;8.32;;;22.80;38.70;;;;;;6155846;28;82985;-68
2021/12/09 06:22:07;;;;;;;11.65;7.65;;;22.80;40.70;;;;;;6151035;28;81702;-68
2021/12/09 06:25:09;;;;;;;9.82;6.72;;;22.70;41.80;;;;;;6157798;28;81681;-67
2021/12/09 06:28:09;;;;;;;8.13;6.15;;;22.70;42.70;;;;;;6156998;28;80558;-67
2021/12/09 06:31:10;;;;;;;10.45;6.43;;;22.70;42.90;;;;;;6157341;28;81612;-67
2021/12/09 06:34:12;;;;;;;10.98;6.10;;;22.70;43.70;;;;;;6155304;28;80286;-67
2021/12/09 06:37:13;;;;;;;16.58;6.18;;;22.60;44.60;;;;;;6155093;28;80129;-71
2021/12/09 06:40:13;;;;;;;13.00;6.93;;;22.60;45.20;;;;;;6152322;28;80800;-67
2021/12/09 06:43:14;;;;;;;10.15;7.25;;;22.60;44.90;;;;;;6144879;28;80553;-66
2021/12/09 06:46:14;;;;;;;16.85;8.82;;;22.60;45.20;;;;;;6150567;28;80931;-67
2021/12/09 06:49:15;;;;;;;17.38;10.55;;;22.60;45.70;;;;;;6154003;28;80784;-66
2021/12/09 06:52:15;;;;;;;16.00;10.10;;;22.60;46.30;;;;;;6151512;28;82992;-66
2021/12/09 06:55:16;;;;;;;20.45;10.57;;;22.60;46.30;;;;;;6155320;28;84032;-67
2021/12/09 06:58:18;;;;;;;12.60;8.43;;;22.50;46.50;;;;;;6154137;28;83660;-67
2021/12/09 07:01:19;;;;;;;17.05;7.85;;;22.50;46.60;;;;;;6154491;28;83662;-66
2021/12/09 07:04:19;;;;;;;11.68;7.10;;;22.40;46.90;;;;;;6156190;28;81481;-67
2021/12/09 07:07:20;;;;;;;13.00;8.48;;;22.40;47.40;;;;;;6158852;28;81419;-65
2021/12/09 07:10:21;;;;;;;9.40;6.72;;;22.40;46.80;;;;;;6156995;28;80439;-65
2021/12/09 07:13:22;;;;;;;10.90;6.78;;;22.40;46.60;;;;;;6156110;28;81148;-65
2021/12/09 07:16:22;;;;;;;11.30;7.25;;;22.50;46.70;;;;;;6146360;28;81839;-67
2021/12/09 07:19:23;;;;;;;9.77;6.82;;;22.50;45.80;;;;;;6156676;28;80419;-67
2021/12/09 07:22:23;;;;;;;10.45;7.07;;;22.50;45.80;;;;;;6157402;28;81655;-66
2021/12/09 07:25:24;;;;;;;10.48;6.55;;;22.50;45.40;;;;;;6151818;28;81277;-66
2021/12/09 07:28:24;;;;;;;11.52;7.03;;;22.50;45.50;;;;;;6159130;28;80693;-68
2021/12/09 07:31:25;;;;;;;10.50;6.63;;;22.50;45.20;;;;;;6159329;28;81019;-65
2021/12/09 07:34:25;;;;;;;8.30;5.97;;;22.50;45.30;;;;;;6150801;28;80328;-65
2021/12/09 07:37:26;;;;;;;13.48;7.15;;;22.50;45.60;;;;;;6157909;28;80803;-66
2021/12/09 07:40:26;;;;;;;9.85;6.97;;;22.50;45.30;;;;;;6147723;28;80205;-67
2021/12/09 07:43:27;;;;;;;9.65;6.93;;;22.50;44.80;;;;;;6153844;28;80537;-66
2021/12/09 07:46:28;;;;;;;11.77;6.85;;;22.40;46.00;;;;;;6157941;28;80638;-65
2021/12/09 07:49:28;;;;;;;11.00;6.95;;;22.40;45.40;;;;;;6154082;28;80638;-66
2021/12/09 07:52:29;;;;;;;8.80;6.15;;;22.40;45.40;;;;;;6152993;28;81440;-68
2021/12/09 07:55:29;;;;;;;10.75;6.82;;;22.40;45.30;;;;;;6154642;28;82648;-66
2021/12/09 07:58:32;;;;;;;7.90;5.72;;;22.40;45.40;;;;;;6155505;28;80496;-65
2021/12/09 08:01:32;;;;;;;12.88;6.90;;;22.40;45.10;;;;;;6155898;28;80454;-67
2021/12/09 08:04:33;;;;;;;7.78;5.53;;;22.40;45.20;;;;;;6143519;28;82281;-68
2021/12/09 08:07:34;;;;;;;12.07;6.55;;;22.40;45.50;;;;;;6156068;28;83225;-65
2021/12/09 08:10:34;;;;;;;8.30;5.70;;;22.40;45.50;;;;;;6149875;28;80336;-66
2021/12/09 08:13:35;;;;;;;8.88;5.72;;;22.40;45.50;;;;;;6152421;28;80875;-70
2021/12/09 08:16:37;;;;;;;9.38;5.95;;;22.30;45.40;;;;;;6159090;28;80777;-68
2021/12/09 08:19:38;;;;;;;9.50;6.70;;;22.40;45.20;;;;;;6153049;28;81072;-66
2021/12/09 08:22:38;;;;;;;11.15;6.05;;;22.30;45.10;;;;;;6154538;28;82362;-66
2021/12/09 08:25:39;;;;;;;11.82;6.40;;;22.30;45.60;;;;;;6152558;28;81154;-65
2021/12/09 08:28:39;;;;;;;11.07;6.05;;;22.30;45.60;;;;;;6147835;28;81167;-65
2021/12/09 08:31:40;;;;;;;7.63;5.60;;;22.30;45.60;;;;;;6150551;28;80870;-65
2021/12/09 08:34:40;;;;;;;6.72;5.05;;;22.30;45.40;;;;;;6155360;28;80538;-66
2021/12/09 08:37:41;;;;;;;8.93;5.97;;;22.30;44.80;;;;;;6151732;28;80671;-65
2021/12/09 08:40:42;;;;;;;13.43;6.80;;;22.40;44.90;;;;;;6153504;28;82959;-64
2021/12/09 08:43:43;;;;;;;7.80;5.55;;;22.40;44.90;;;;;;6150520;28;81883;-66
2021/12/09 08:46:43;;;;;;;10.23;6.40;;;22.30;44.90;;;;;;6147655;28;81514;-68
2021/12/09 08:49:45;;;;;;;9.10;5.90;;;22.40;44.80;;;;;;6154636;28;80612;-65
2021/12/09 08:52:45;;;;;;;10.65;6.65;;;22.40;44.60;;;;;;6150577;28;80902;-65
2021/12/09 08:55:46;;;;;;;7.72;5.50;;;22.50;44.30;;;;;;6158791;28;80537;-64
2021/12/09 08:58:46;;;;;;;10.57;6.05;;;22.50;44.30;;;;;;6156511;28;81013;-64
2021/12/09 09:01:47;;;;;;;10.32;6.70;;;22.50;44.00;;;;;;6157216;28;80276;-69
2021/12/09 09:04:48;;;;;;;7.97;6.30;;;22.60;44.10;;;;;;6152139;28;83102;-65
2021/12/09 09:07:48;;;;;;;8.88;6.00;;;22.60;44.40;;;;;;6156836;28;80507;-66
2021/12/09 09:10:49;;;;;;;7.90;5.65;;;22.60;44.00;;;;;;6159104;28;80489;-67
2021/12/09 09:13:49;;;;;;;9.85;6.85;;;22.70;44.30;;;;;;6141220;28;81213;-66
2021/12/09 09:16:50;;;;;;;13.27;6.75;;;22.70;44.20;;;;;;6155989;28;80843;-66
2021/12/09 09:19:51;;;;;;;10.07;6.90;;;22.80;44.20;;;;;;6157268;28;82431;-67
2021/12/09 09:22:51;;;;;;;9.35;6.22;;;22.80;44.00;;;;;;6154942;28;80768;-65
2021/12/09 09:25:52;;;;;;;9.43;6.38;;;22.80;44.50;;;;;;6168496;28;81195;-66
2021/12/09 09:28:52;;;;;;;8.48;6.00;;;22.80;44.10;;;;;;6158078;28;80564;-66
2021/12/09 09:31:53;;;;;;;11.10;6.95;;;22.80;44.30;;;;;;6155692;28;81457;-65
2021/12/09 09:34:53;;;;;;;8.45;5.70;;;22.80;44.10;;;;;;6156155;28;80120;-69
2021/12/09 09:37:54;;;;;;;10.52;7.07;;;22.80;44.50;;;;;;6154390;28;80735;-66
2021/12/09 09:41:02;;;;;;;9.45;6.70;;;22.80;44.50;;;;;;6157741;28;81146;-64
2021/12/09 09:44:13;;;;;;;12.30;7.03;;;22.80;44.40;;;;;;6155497;28;80908;-65
2021/12/09 09:47:13;;;;;;;9.57;6.55;;;22.80;44.50;;;;;;6156440;28;80140;-65
2021/12/09 09:50:14;;;;;;;8.77;6.07;;;22.80;44.70;;;;;;6155330;28;80720;-66
2021/12/09 09:53:15;;;;;;;11.65;6.93;;;22.80;44.70;;;;;;6156642;28;80643;-65
2021/12/09 09:56:18;;;;;;;9.75;5.70;;;22.80;44.70;;;;;;6153508;28;80353;-66
2021/12/09 09:59:19;;;;;;;7.97;6.10;;;22.70;44.90;;;;;;6154024;28;80592;-67
2021/12/09 10:02:19;;;;;;;8.98;6.35;;;22.70;44.90;;;;;;6153545;28;81015;-66
2021/12/09 10:05:22;;;;;;;8.57;6.22;;;22.60;44.80;;;;;;6154258;28;80974;-65
2021/12/09 10:08:23;;;;;;;9.10;5.80;;;22.60;45.00;;;;;;6163905;28;81461;-65
2021/12/09 10:11:23;;;;;;;8.43;6.10;;;22.60;45.40;;;;;;6157422;28;81820;-64
2021/12/09 10:14:24;;;;;;;9.43;5.43;;;22.70;45.10;;;;;;6156292;28;80392;-65
2021/12/09 10:17:26;;;;;;;8.75;5.80;;;22.70;45.20;;;;;;6146363;28;80699;-66
2021/12/09 10:20:26;;;;;;;12.02;5.95;;;22.70;45.00;;;;;;6149741;28;80264;-65
2021/12/09 10:23:27;;;;;;;13.15;6.63;;;22.70;45.30;;;;;;6145089;28;81188;-63
2021/12/09 10:26:27;;;;;;;9.40;5.90;;;22.70;45.10;;;;;;6145324;28;81108;-63
2021/12/09 10:29:36;;;;;;;9.00;6.20;;;22.70;45.10;;;;;;6155230;28;80340;-63
2021/12/09 10:32:36;;;;;;;7.88;5.68;;;22.70;45.20;;;;;;6156276;28;80830;-63
2021/12/09 10:35:37;;;;;;;9.38;6.38;;;22.70;45.10;;;;;;6155209;28;81191;-63
2021/12/09 10:38:37;;;;;;;7.85;5.95;;;22.70;44.90;;;;;;6155865;28;82004;-65
2021/12/09 10:41:38;;;;;;;7.07;5.53;;;22.70;44.90;;;;;;6152999;28;86540;-64
2021/12/09 10:44:39;;;;;;;7.63;5.55;;;22.60;44.70;;;;;;6143428;28;80391;-66
2021/12/09 10:50:47;;;;;;;6.15;4.78;;;22.60;45.00;;;;;;6152523;28;80808;-66
2021/12/09 10:53:48;;;;;;;7.97;5.90;;;22.60;44.90;;;;;;6155987;28;80812;-66
2021/12/09 10:56:49;;;;;;;11.40;5.95;;;22.50;44.80;;;;;;6155831;28;80250;-64
2021/12/09 10:59:49;;;;;;;10.88;6.70;;;22.50;44.90;;;;;;6156558;28;80577;-63
2021/12/09 11:02:50;;;;;;;14.07;5.90;;;22.60;44.90;;;;;;6156337;28;81881;-63
2021/12/09 11:05:50;;;;;;;9.82;6.68;;;22.50;45.00;;;;;;6150976;28;80724;-63
2021/12/09 11:08:51;;;;;;;10.55;6.55;;;22.50;45.20;;;;;;6158722;28;80593;-63
2021/12/09 11:11:54;;;;;;;10.52;6.93;;;22.50;45.70;;;;;;6155574;28;80357;-63
2021/12/09 11:15:00;;;;;;;8.85;6.80;;;22.50;46.10;;;;;;6155406;28;80883;-64
2021/12/09 11:18:07;;;;;;;9.32;6.28;;;22.50;47.00;;;;;;6155430;28;80528;-64
2021/12/09 11:21:08;;;;;;;8.00;6.00;;;22.50;47.40;;;;;;6151685;28;81018;-63
2021/12/09 11:24:11;;;;;;;9.18;6.45;;;22.50;47.80;;;;;;6160887;28;80665;-63
2021/12/09 11:27:11;;;;;;;9.20;5.65;;;22.50;47.40;;;;;;6150560;28;81168;-63
2021/12/09 11:30:15;;;;;;;10.15;6.13;;;22.50;47.20;;;;;;6153247;28;82051;-64
2021/12/09 11:33:16;;;;;;;9.50;5.53;;;22.50;47.00;;;;;;6153841;28;80877;-63
2021/12/09 11:36:19;;;;;;;7.30;5.63;;;22.50;46.80;;;;;;6159609;28;80497;-63
2021/12/09 11:39:26;;;;;;;9.00;6.10;;;22.50;46.70;;;;;;6153691;28;81879;-63
2021/12/09 11:42:33;;;;;;;10.02;5.80;;;22.40;46.90;;;;;;6169409;28;81792;-67
2021/12/09 11:45:34;;;;;;;7.70;5.57;;;22.40;46.20;;;;;;6138147;28;80485;-67
2021/12/09 11:48:34;;;;;;;13.10;8.23;;;22.40;46.10;;;;;;6141172;28;80841;-64
2021/12/09 11:51:35;;;;;;;27.15;15.73;;;22.40;46.50;;;;;;6159107;28;81502;-66
2021/12/09 11:54:36;;;;;;;39.10;19.27;;;22.40;46.70;;;;;;6154205;28;83245;-65
2021/12/09 11:57:49;;;;;;;27.75;17.38;;;22.50;46.80;;;;;;6154573;28;83134;-66
2021/12/09 12:11:11;;;;;;;25.38;13.40;;;22.40;47.10;;;;;;6160639;28;83121;-65
2021/12/09 12:11:16;;;;;;;21.70;12.77;;;22.40;47.40;;;;;;6147444;28;83918;-65
2021/12/09 12:14:18;;;;;;;20.95;12.10;;;22.40;47.30;;;;;;6154172;28;83562;-66
2021/12/09 12:21:06;;;;;;;12.45;9.55;;;22.40;47.10;;;;;;6155633;28;87512;-66
2021/12/09 12:24:21;;;;;;;17.75;10.52;;;22.40;47.10;;;;;;6157271;28;84702;-66
2021/12/09 12:27:22;;;;;;;14.67;9.33;;;22.50;46.60;;;;;;6152314;28;83257;-66
2021/12/09 12:33:36;;;;;;;12.38;8.75;;;22.60;46.10;;;;;;6157757;28;81492;-68
2021/12/09 12:36:53;;;;;;;13.52;7.95;;;22.60;45.90;;;;;;6159467;28;80749;-65
2021/12/09 12:39:59;;;;;;;12.70;7.97;;;22.70;46.00;;;;;;6152365;28;80261;-67
2021/12/09 12:43:11;;;;;;;9.93;7.13;;;22.70;45.70;;;;;;6147756;28;81511;-65
2021/12/09 12:46:21;;;;;;;12.35;7.20;;;22.70;45.40;;;;;;6156857;28;80700;-66
2021/12/09 12:52:30;;;;;;;9.95;6.57;;;22.80;45.50;;;;;;6158307;28;80800;-64
2021/12/09 12:55:36;;;;;;;11.88;7.03;;;22.80;45.40;;;;;;6158610;28;80848;-62
2021/12/09 12:58:37;;;;;;;9.98;6.57;;;22.80;45.50;;;;;;6158092;28;80895;-64
2021/12/09 13:01:40;;;;;;;8.75;6.30;;;22.80;45.20;;;;;;6155406;28;82555;-64
2021/12/09 13:04:54;;;;;;;10.57;6.05;;;22.80;45.40;;;;;;6154849;28;81840;-65
2021/12/09 13:14:03;;;;;;;9.52;5.50;;;22.80;45.20;;;;;;6157315;28;80985;-72
2021/12/09 13:17:18;;;;;;;10.07;6.55;;;22.70;45.40;;;;;;6160517;28;80287;-72
2021/12/09 13:20:19;;;;;;;7.38;5.57;;;22.70;45.40;;;;;;6158001;28;80356;-74
2021/12/09 13:23:25;;;;;;;8.48;6.07;;;22.70;45.60;;;;;;6156397;28;82461;-68
2021/12/09 13:26:30;;;;;;;10.40;5.95;;;22.70;45.40;;;;;;6148970;28;80428;-69
2021/12/09 13:46:05;;;;;;;10.57;5.18;;;22.60;46.70;;;;;;6148489;28;80890;-67
2021/12/09 13:49:17;;;;;;;8.23;5.80;;;22.60;46.10;;;;;;6160952;28;80367;-66
2021/12/09 13:55:44;;;;;;;8.65;6.15;;;22.60;46.30;;;;;;6148997;28;80681;-66
2021/12/09 13:58:45;;;;;;;9.73;6.25;;;22.70;46.30;;;;;;6148422;28;80263;-67
2021/12/09 14:01:46;;;;;;;8.68;5.38;;;22.60;46.40;;;;;;6148563;28;80772;-65
2021/12/09 14:04:47;;;;;;;8.85;5.88;;;22.60;46.70;;;;;;6160600;28;81198;-68
2021/12/09 14:07:58;;;;;;;8.75;5.78;;;22.60;46.70;;;;;;6150664;28;81468;-66
2021/12/09 14:11:02;;;;;;;7.88;5.43;;;22.60;46.70;;;;;;6156645;28;80485;-66
2021/12/09 14:14:09;;;;;;;7.95;5.35;;;22.60;46.80;;;;;;6149068;28;80943;-71
2021/12/09 14:17:14;;;;;;;8.45;6.18;;;22.60;47.00;;;;;;6155366;28;82808;-66
2021/12/09 14:20:14;;;;;;;9.15;5.85;;;22.60;46.60;;;;;;6156267;28;81722;-65
2021/12/09 14:23:15;;;;;;;8.00;5.68;;;22.60;46.70;;;;;;6157345;28;80916;-70
2021/12/09 14:26:15;;;;;;;11.93;6.07;;;22.60;46.80;;;;;;6154813;28;80576;-68
2021/12/09 14:29:16;;;;;;;8.23;6.38;;;22.50;46.60;;;;;;6148123;28;80520;-71
2021/12/09 14:32:16;;;;;;;8.88;6.38;;;22.50;46.70;;;;;;6156117;28;80607;-71
2021/12/09 14:35:17;;;;;;;9.00;6.10;;;22.50;46.50;;;;;;6156698;28;80506;-70
2021/12/09 14:38:17;;;;;;;10.05;6.88;;;22.50;46.20;;;;;;6158772;28;80539;-71
2021/12/09 14:41:19;;;;;;;10.60;6.78;;;22.50;46.70;;;;;;6151892;28;80547;-70
2021/12/09 14:44:20;;;;;;;8.75;6.68;;;22.50;47.10;;;;;;6152628;28;80791;-70
2021/12/09 14:47:20;;;;;;;8.95;6.10;;;22.50;47.20;;;;;;6155248;28;83546;-70
2021/12/09 14:50:21;;;;;;;8.80;5.78;;;22.50;47.40;;;;;;6153946;28;80358;-71
2021/12/09 14:53:21;;;;;;;8.18;5.97;;;22.50;47.30;;;;;;6156421;28;80287;-70
2021/12/09 14:56:22;;;;;;;12.43;6.70;;;22.50;47.20;;;;;;6154574;28;80252;-72
2021/12/09 14:59:23;;;;;;;12.07;5.80;;;22.50;47.30;;;;;;6145181;28;81790;-68
2021/12/09 15:02:37;;;;;;;11.73;6.10;;;22.40;47.20;;;;;;6149558;28;83195;-70
2021/12/09 15:05:37;;;;;;;9.82;6.07;;;22.40;47.00;;;;;;6150816;28;80474;-69
2021/12/09 15:08:38;;;;;;;9.70;6.55;;;22.40;47.30;;;;;;6150786;28;81545;-70
2021/12/09 15:11:38;;;;;;;9.57;6.50;;;22.50;47.30;;;;;;6152416;28;84567;-70
2021/12/09 15:14:39;;;;;;;9.98;6.60;;;22.50;47.20;;;;;;6152049;28;82156;-69
2021/12/09 15:17:39;;;;;;;10.68;7.07;;;22.50;47.10;;;;;;6147324;28;81064;-69
2021/12/09 15:20:41;;;;;;;12.40;7.22;;;22.50;47.10;;;;;;6145670;28;81111;-69
2021/12/09 15:23:45;;;;;;;10.73;6.88;;;22.50;47.00;;;;;;6149555;28;80605;-69
2021/12/09 15:26:45;;;;;;;9.43;7.00;;;22.50;47.00;;;;;;6154785;28;81033;-70
2021/12/09 15:29:46;;;;;;;10.23;7.10;;;22.50;47.00;;;;;;6155008;28;80711;-69
2021/12/09 15:32:46;;;;;;;10.10;6.50;;;22.50;46.90;;;;;;6150829;28;80543;-69
2021/12/09 15:35:47;;;;;;;11.10;6.80;;;22.50;46.80;;;;;;6150147;28;80942;-70
2021/12/09 15:38:47;;;;;;;11.00;7.05;;;22.40;46.80;;;;;;6155071;28;80418;-69
2021/12/09 15:41:48;;;;;;;9.52;6.68;;;22.50;46.70;;;;;;6161061;28;80424;-66
2021/12/09 15:44:49;;;;;;;10.93;7.45;;;22.50;46.40;;;;;;6155456;28;80888;-65
2021/12/09 15:47:55;;;;;;;10.60;7.00;;;22.50;46.10;;;;;;6156309;28;81783;-65
2021/12/09 15:50:55;;;;;;;9.55;6.55;;;22.50;45.50;;;;;;6157273;28;80407;-67
2021/12/09 15:53:56;;;;;;;12.20;7.00;;;22.40;46.10;;;;;;6157140;28;82758;-65
2021/12/09 15:56:56;;;;;;;9.80;6.95;;;22.50;45.50;;;;;;6156784;28;80389;-67
2021/12/09 15:59:57;;;;;;;9.85;7.20;;;22.50;45.40;;;;;;6158274;28;81314;-66
2021/12/09 16:02:57;;;;;;;11.15;7.63;;;22.60;45.00;;;;;;6159671;28;80225;-63
2021/12/09 16:05:58;;;;;;;12.73;8.10;;;22.60;44.90;;;;;;6160060;28;82929;-65
2021/12/09 16:08:59;;;;;;;11.48;7.85;;;22.60;44.80;;;;;;6157541;28;80590;-67
2021/12/09 16:12:02;;;;;;;17.25;8.27;;;22.70;45.30;;;;;;6160154;28;81372;-67
2021/12/09 16:15:04;;;;;;;11.77;7.18;;;22.70;44.50;;;;;;6158034;28;82299;-65
2021/12/09 16:18:05;;;;;;;10.38;7.15;;;22.70;44.60;;;;;;6158535;28;81012;-66
2021/12/09 16:21:09;;;;;;;11.90;7.95;;;22.70;44.50;;;;;;6155983;28;80355;-66